sensor_id;sensor_type;location;lat;lon;timestamp;P1;durP1;ratioP1;P2;durP2;ratioP2
39948;SDS011;29070;48.102;-1.652;2023-04-29T00:04:31;7.03;;;3.05;;
39948;SDS011;29070;48.102;-1.652;2023-04-29T00:09:31;5.03;;;2.90;;
39948;SDS011;29070;48.102;-1.652;2023-04-29T00:14:32;5.30;;;2.67;;
39948;SDS011;29070;48.102;-1.652;2023-04-29T00:19:32;5.97;;;2.70;;
39948;SDS011;29070;48.102;-1.652;2023-04-29T00:24:32;3.80;;;2.43;;
39948;SDS011;29070;48.102;-1.652;2023-04-29T00:29:33;5.53;;;2.67;;
39948;SDS011;29070;48.102;-1.652;2023-04-29T00:34:33;4.43;;;2.30;;
39948;SDS011;29070;48.102;-1.652;2023-04-29T00:39:33;4.03;;;2.57;;
39948;SDS011;29070;48.102;-1.652;2023-04-29T00:44:34;5.23;;;2.70;;
39948;SDS011;29070;48.102;-1.652;2023-04-29T00:49:34;4.20;;;2.80;;
39948;SDS011;29070;48.102;-1.652;2023-04-29T00:54:35;5.80;;;2.78;;
39948;SDS011;29070;48.102;-1.652;2023-04-29T00:59:36;7.40;;;3.30;;
39948;SDS011;29070;48.102;-1.652;2023-04-29T01:04:37;6.43;;;3.35;;
39948;SDS011;29070;48.102;-1.652;2023-04-29T01:20:04;4.37;;;1.80;;
39948;SDS011;29070;48.102;-1.652;2023-04-29T01:25:06;3.35;;;1.77;;
39948;SDS011;29070;48.102;-1.652;2023-04-29T01:30:19;5.18;;;1.98;;
39948;SDS011;29070;48.102;-1.652;2023-04-29T01:40:59;3.70;;;2.05;;
39948;SDS011;29070;48.102;-1.652;2023-04-29T01:46:04;2.47;;;1.38;;
39948;SDS011;29070;48.102;-1.652;2023-04-29T01:51:08;3.03;;;1.73;;
39948;SDS011;29070;48.102;-1.652;2023-04-29T01:56:08;3.42;;;1.27;;
39948;SDS011;29070;48.102;-1.652;2023-04-29T02:01:09;1.47;;;0.80;;
39948;SDS011;29070;48.102;-1.652;2023-04-29T02:06:10;2.15;;;0.80;;
39948;SDS011;29070;48.102;-1.652;2023-04-29T02:11:11;4.27;;;1.00;;
39948;SDS011;29070;48.102;-1.652;2023-04-29T02:16:12;2.27;;;1.37;;
39948;SDS011;29070;48.102;-1.652;2023-04-29T02:21:13;1.88;;;1.13;;
39948;SDS011;29070;48.102;-1.652;2023-04-29T02:26:14;1.97;;;0.80;;
39948;SDS011;29070;48.102;-1.652;2023-04-29T02:31:14;2.17;;;0.85;;
39948;SDS011;29070;48.102;-1.652;2023-04-29T02:36:14;1.63;;;0.80;;
39948;SDS011;29070;48.102;-1.652;2023-04-29T02:41:15;1.07;;;0.70;;
39948;SDS011;29070;48.102;-1.652;2023-04-29T02:46:17;2.25;;;0.82;;
39948;SDS011;29070;48.102;-1.652;2023-04-29T02:51:17;2.70;;;1.00;;
39948;SDS011;29070;48.102;-1.652;2023-04-29T02:56:18;4.67;;;1.70;;
39948;SDS011;29070;48.102;-1.652;2023-04-29T03:01:18;5.82;;;2.00;;
39948;SDS011;29070;48.102;-1.652;2023-04-29T03:06:19;3.80;;;1.98;;
39948;SDS011;29070;48.102;-1.652;2023-04-29T03:11:20;4.78;;;1.85;;
39948;SDS011;29070;48.102;-1.652;2023-04-29T03:16:23;4.57;;;2.45;;
39948;SDS011;29070;48.102;-1.652;2023-04-29T03:21:24;8.13;;;2.90;;
39948;SDS011;29070;48.102;-1.652;2023-04-29T03:26:26;6.38;;;2.88;;
39948;SDS011;29070;48.102;-1.652;2023-04-29T03:31:26;8.30;;;3.70;;
39948;SDS011;29070;48.102;-1.652;2023-04-29T03:36:27;8.90;;;3.55;;
39948;SDS011;29070;48.102;-1.652;2023-04-29T03:41:28;7.75;;;3.53;;
39948;SDS011;29070;48.102;-1.652;2023-04-29T03:46:28;8.57;;;3.50;;
39948;SDS011;29070;48.102;-1.652;2023-04-29T03:51:29;7.77;;;3.77;;
39948;SDS011;29070;48.102;-1.652;2023-04-29T03:56:29;10.93;;;4.72;;
39948;SDS011;29070;48.102;-1.652;2023-04-29T04:01:30;10.27;;;4.50;;
39948;SDS011;29070;48.102;-1.652;2023-04-29T04:06:30;8.33;;;4.70;;
39948;SDS011;29070;48.102;-1.652;2023-04-29T04:11:31;11.65;;;5.57;;
39948;SDS011;29070;48.102;-1.652;2023-04-29T04:16:31;12.13;;;5.67;;
39948;SDS011;29070;48.102;-1.652;2023-04-29T04:21:31;13.20;;;5.37;;
39948;SDS011;29070;48.102;-1.652;2023-04-29T04:26:32;10.65;;;4.80;;
39948;SDS011;29070;48.102;-1.652;2023-04-29T04:31:32;9.97;;;5.27;;
39948;SDS011;29070;48.102;-1.652;2023-04-29T04:36:33;11.77;;;4.82;;
39948;SDS011;29070;48.102;-1.652;2023-04-29T04:41:33;9.83;;;4.90;;
39948;SDS011;29070;48.102;-1.652;2023-04-29T04:46:34;9.43;;;4.40;;
39948;SDS011;29070;48.102;-1.652;2023-04-29T04:51:35;10.07;;;4.57;;
39948;SDS011;29070;48.102;-1.652;2023-04-29T04:56:36;7.72;;;4.05;;
39948;SDS011;29070;48.102;-1.652;2023-04-29T05:01:36;7.35;;;4.10;;
39948;SDS011;29070;48.102;-1.652;2023-04-29T05:06:37;10.67;;;4.27;;
39948;SDS011;29070;48.102;-1.652;2023-04-29T05:11:37;12.10;;;4.50;;
39948;SDS011;29070;48.102;-1.652;2023-04-29T05:16:37;7.57;;;4.53;;
39948;SDS011;29070;48.102;-1.652;2023-04-29T05:21:38;9.80;;;4.57;;
39948;SDS011;29070;48.102;-1.652;2023-04-29T05:26:38;7.63;;;3.57;;
39948;SDS011;29070;48.102;-1.652;2023-04-29T05:31:39;4.93;;;3.43;;
39948;SDS011;29070;48.102;-1.652;2023-04-29T05:36:39;6.22;;;3.30;;
39948;SDS011;29070;48.102;-1.652;2023-04-29T05:41:39;7.27;;;3.10;;
39948;SDS011;29070;48.102;-1.652;2023-04-29T05:46:40;8.97;;;3.43;;
39948;SDS011;29070;48.102;-1.652;2023-04-29T05:51:40;8.55;;;3.83;;
39948;SDS011;29070;48.102;-1.652;2023-04-29T05:56:41;7.07;;;3.13;;
39948;SDS011;29070;48.102;-1.652;2023-04-29T06:01:48;8.53;;;3.47;;
39948;SDS011;29070;48.102;-1.652;2023-04-29T06:06:49;5.55;;;3.30;;
39948;SDS011;29070;48.102;-1.652;2023-04-29T06:11:51;5.32;;;2.92;;
39948;SDS011;29070;48.102;-1.652;2023-04-29T06:16:51;9.20;;;4.07;;
39948;SDS011;29070;48.102;-1.652;2023-04-29T06:21:52;6.38;;;3.97;;
39948;SDS011;29070;48.102;-1.652;2023-04-29T06:26:53;7.50;;;4.23;;
39948;SDS011;29070;48.102;-1.652;2023-04-29T06:31:53;8.97;;;3.60;;
39948;SDS011;29070;48.102;-1.652;2023-04-29T06:36:55;7.60;;;3.35;;
39948;SDS011;29070;48.102;-1.652;2023-04-29T06:41:55;6.70;;;2.92;;
39948;SDS011;29070;48.102;-1.652;2023-04-29T06:46:58;8.43;;;4.00;;
39948;SDS011;29070;48.102;-1.652;2023-04-29T06:51:58;7.97;;;3.70;;
39948;SDS011;29070;48.102;-1.652;2023-04-29T06:57:01;6.97;;;3.83;;
39948;SDS011;29070;48.102;-1.652;2023-04-29T07:02:01;7.03;;;4.00;;
39948;SDS011;29070;48.102;-1.652;2023-04-29T07:07:02;8.50;;;3.83;;
39948;SDS011;29070;48.102;-1.652;2023-04-29T07:12:03;8.20;;;3.60;;
39948;SDS011;29070;48.102;-1.652;2023-04-29T07:17:04;6.75;;;3.90;;
39948;SDS011;29070;48.102;-1.652;2023-04-29T07:22:04;6.10;;;3.45;;
39948;SDS011;29070;48.102;-1.652;2023-04-29T07:27:05;6.53;;;3.33;;
39948;SDS011;29070;48.102;-1.652;2023-04-29T07:32:05;7.47;;;3.58;;
39948;SDS011;29070;48.102;-1.652;2023-04-29T07:37:07;7.22;;;3.88;;
39948;SDS011;29070;48.102;-1.652;2023-04-29T07:42:07;7.25;;;4.07;;
39948;SDS011;29070;48.102;-1.652;2023-04-29T07:47:07;7.60;;;3.77;;
39948;SDS011;29070;48.102;-1.652;2023-04-29T07:52:08;5.93;;;3.30;;
39948;SDS011;29070;48.102;-1.652;2023-04-29T07:57:09;6.20;;;3.53;;
39948;SDS011;29070;48.102;-1.652;2023-04-29T08:02:09;9.50;;;3.83;;
39948;SDS011;29070;48.102;-1.652;2023-04-29T08:07:09;7.60;;;4.17;;
39948;SDS011;29070;48.102;-1.652;2023-04-29T08:12:10;8.00;;;4.00;;
39948;SDS011;29070;48.102;-1.652;2023-04-29T08:17:10;7.83;;;4.27;;
39948;SDS011;29070;48.102;-1.652;2023-04-29T08:22:10;10.50;;;4.17;;
39948;SDS011;29070;48.102;-1.652;2023-04-29T08:27:11;7.20;;;3.85;;
39948;SDS011;29070;48.102;-1.652;2023-04-29T08:32:11;7.10;;;3.83;;
39948;SDS011;29070;48.102;-1.652;2023-04-29T08:37:12;7.43;;;4.22;;
39948;SDS011;29070;48.102;-1.652;2023-04-29T08:42:12;6.97;;;3.93;;
39948;SDS011;29070;48.102;-1.652;2023-04-29T08:47:12;7.17;;;3.93;;
39948;SDS011;29070;48.102;-1.652;2023-04-29T08:52:15;7.65;;;3.95;;
39948;SDS011;29070;48.102;-1.652;2023-04-29T08:57:15;6.73;;;4.03;;
39948;SDS011;29070;48.102;-1.652;2023-04-29T09:02:16;7.43;;;3.92;;
39948;SDS011;29070;48.102;-1.652;2023-04-29T09:07:20;12.48;;;3.92;;
39948;SDS011;29070;48.102;-1.652;2023-04-29T09:12:21;8.10;;;3.75;;
39948;SDS011;29070;48.102;-1.652;2023-04-29T09:17:41;7.13;;;3.77;;
39948;SDS011;29070;48.102;-1.652;2023-04-29T09:22:49;6.85;;;3.83;;
39948;SDS011;29070;48.102;-1.652;2023-04-29T09:27:54;7.07;;;3.92;;
39948;SDS011;29070;48.102;-1.652;2023-04-29T09:33:07;6.20;;;3.45;;
39948;SDS011;29070;48.102;-1.652;2023-04-29T09:38:12;6.85;;;3.72;;
39948;SDS011;29070;48.102;-1.652;2023-04-29T09:43:16;8.70;;;4.28;;
39948;SDS011;29070;48.102;-1.652;2023-04-29T09:48:17;7.38;;;4.18;;
39948;SDS011;29070;48.102;-1.652;2023-04-29T09:53:26;9.87;;;3.90;;
39948;SDS011;29070;48.102;-1.652;2023-04-29T09:58:32;5.75;;;3.45;;
39948;SDS011;29070;48.102;-1.652;2023-04-29T10:03:36;6.50;;;3.45;;
39948;SDS011;29070;48.102;-1.652;2023-04-29T10:08:38;7.63;;;3.75;;
39948;SDS011;29070;48.102;-1.652;2023-04-29T10:13:41;8.18;;;3.78;;
39948;SDS011;29070;48.102;-1.652;2023-04-29T10:18:44;7.53;;;3.95;;
39948;SDS011;29070;48.102;-1.652;2023-04-29T10:23:51;15.27;;;10.32;;
39948;SDS011;29070;48.102;-1.652;2023-04-29T10:28:53;18.05;;;10.20;;
39948;SDS011;29070;48.102;-1.652;2023-04-29T10:33:55;8.70;;;5.25;;
39948;SDS011;29070;48.102;-1.652;2023-04-29T10:39:00;8.02;;;5.20;;
39948;SDS011;29070;48.102;-1.652;2023-04-29T10:44:05;6.70;;;4.28;;
39948;SDS011;29070;48.102;-1.652;2023-04-29T10:49:05;7.57;;;4.03;;
39948;SDS011;29070;48.102;-1.652;2023-04-29T10:59:14;7.70;;;4.80;;
39948;SDS011;29070;48.102;-1.652;2023-04-29T11:04:22;6.03;;;3.88;;
39948;SDS011;29070;48.102;-1.652;2023-04-29T11:14:23;5.75;;;3.67;;
39948;SDS011;29070;48.102;-1.652;2023-04-29T11:19:33;4.65;;;3.42;;
39948;SDS011;29070;48.102;-1.652;2023-04-29T11:24:35;6.70;;;4.57;;
39948;SDS011;29070;48.102;-1.652;2023-04-29T11:29:36;7.28;;;4.10;;
39948;SDS011;29070;48.102;-1.652;2023-04-29T11:34:37;5.70;;;3.60;;
39948;SDS011;29070;48.102;-1.652;2023-04-29T11:39:37;5.73;;;3.40;;
39948;SDS011;29070;48.102;-1.652;2023-04-29T11:44:38;5.17;;;3.07;;
39948;SDS011;29070;48.102;-1.652;2023-04-29T11:49:38;5.37;;;2.67;;
39948;SDS011;29070;48.102;-1.652;2023-04-29T11:54:39;3.33;;;2.40;;
39948;SDS011;29070;48.102;-1.652;2023-04-29T11:59:41;4.80;;;2.95;;
39948;SDS011;29070;48.102;-1.652;2023-04-29T12:04:47;3.55;;;2.25;;
39948;SDS011;29070;48.102;-1.652;2023-04-29T12:09:48;4.20;;;2.58;;
39948;SDS011;29070;48.102;-1.652;2023-04-29T12:14:48;4.33;;;2.27;;
39948;SDS011;29070;48.102;-1.652;2023-04-29T12:19:49;3.72;;;2.63;;
39948;SDS011;29070;48.102;-1.652;2023-04-29T12:24:51;3.92;;;2.53;;
39948;SDS011;29070;48.102;-1.652;2023-04-29T12:29:53;3.95;;;2.15;;
39948;SDS011;29070;48.102;-1.652;2023-04-29T12:34:53;4.00;;;2.27;;
39948;SDS011;29070;48.102;-1.652;2023-04-29T12:39:54;3.25;;;2.10;;
39948;SDS011;29070;48.102;-1.652;2023-04-29T12:44:54;3.60;;;2.20;;
39948;SDS011;29070;48.102;-1.652;2023-04-29T12:49:55;3.43;;;2.40;;
39948;SDS011;29070;48.102;-1.652;2023-04-29T12:54:56;3.45;;;2.28;;
39948;SDS011;29070;48.102;-1.652;2023-04-29T12:59:56;3.92;;;1.73;;
39948;SDS011;29070;48.102;-1.652;2023-04-29T13:04:57;3.70;;;1.80;;
39948;SDS011;29070;48.102;-1.652;2023-04-29T13:09:57;1.63;;;1.30;;
39948;SDS011;29070;48.102;-1.652;2023-04-29T13:14:57;3.13;;;1.63;;
39948;SDS011;29070;48.102;-1.652;2023-04-29T13:19:58;1.80;;;1.27;;
39948;SDS011;29070;48.102;-1.652;2023-04-29T13:24:58;3.57;;;1.70;;
39948;SDS011;29070;48.102;-1.652;2023-04-29T13:29:59;2.40;;;1.30;;
39948;SDS011;29070;48.102;-1.652;2023-04-29T13:34:59;2.57;;;1.40;;
39948;SDS011;29070;48.102;-1.652;2023-04-29T13:39:59;3.88;;;1.05;;
39948;SDS011;29070;48.102;-1.652;2023-04-29T13:45:00;1.60;;;1.20;;
39948;SDS011;29070;48.102;-1.652;2023-04-29T13:50:00;3.17;;;1.70;;
39948;SDS011;29070;48.102;-1.652;2023-04-29T13:55:01;2.25;;;1.58;;
39948;SDS011;29070;48.102;-1.652;2023-04-29T14:00:02;4.00;;;1.40;;
39948;SDS011;29070;48.102;-1.652;2023-04-29T14:05:02;2.60;;;1.27;;
39948;SDS011;29070;48.102;-1.652;2023-04-29T14:10:03;1.33;;;1.17;;
39948;SDS011;29070;48.102;-1.652;2023-04-29T14:15:04;1.48;;;1.00;;
39948;SDS011;29070;48.102;-1.652;2023-04-29T14:20:05;4.78;;;0.95;;
39948;SDS011;29070;48.102;-1.652;2023-04-29T14:25:06;2.08;;;1.17;;
39948;SDS011;29070;48.102;-1.652;2023-04-29T14:30:07;2.03;;;1.08;;
39948;SDS011;29070;48.102;-1.652;2023-04-29T14:35:08;2.17;;;1.13;;
39948;SDS011;29070;48.102;-1.652;2023-04-29T14:40:09;1.30;;;0.80;;
39948;SDS011;29070;48.102;-1.652;2023-04-29T14:45:09;2.85;;;1.30;;
39948;SDS011;29070;48.102;-1.652;2023-04-29T14:50:10;4.00;;;1.25;;
39948;SDS011;29070;48.102;-1.652;2023-04-29T14:55:10;1.97;;;1.33;;
39948;SDS011;29070;48.102;-1.652;2023-04-29T15:00:11;2.08;;;1.13;;
39948;SDS011;29070;48.102;-1.652;2023-04-29T15:05:12;2.30;;;1.20;;
39948;SDS011;29070;48.102;-1.652;2023-04-29T15:10:12;3.70;;;1.10;;
39948;SDS011;29070;48.102;-1.652;2023-04-29T15:15:12;2.97;;;1.07;;
39948;SDS011;29070;48.102;-1.652;2023-04-29T15:20:13;1.83;;;0.90;;
39948;SDS011;29070;48.102;-1.652;2023-04-29T15:25:14;1.95;;;1.00;;
39948;SDS011;29070;48.102;-1.652;2023-04-29T15:30:15;1.92;;;1.20;;
39948;SDS011;29070;48.102;-1.652;2023-04-29T15:35:16;2.38;;;1.13;;
39948;SDS011;29070;48.102;-1.652;2023-04-29T15:40:16;2.17;;;1.10;;
39948;SDS011;29070;48.102;-1.652;2023-04-29T15:45:17;1.83;;;0.83;;
39948;SDS011;29070;48.102;-1.652;2023-04-29T15:50:18;2.03;;;1.13;;
39948;SDS011;29070;48.102;-1.652;2023-04-29T15:55:19;1.45;;;0.95;;
39948;SDS011;29070;48.102;-1.652;2023-04-29T16:00:20;1.52;;;0.98;;
39948;SDS011;29070;48.102;-1.652;2023-04-29T16:05:20;2.07;;;0.90;;
39948;SDS011;29070;48.102;-1.652;2023-04-29T16:10:21;2.90;;;1.17;;
39948;SDS011;29070;48.102;-1.652;2023-04-29T16:15:21;2.20;;;1.10;;
39948;SDS011;29070;48.102;-1.652;2023-04-29T16:20:23;2.78;;;1.45;;
39948;SDS011;29070;48.102;-1.652;2023-04-29T16:25:24;2.75;;;1.20;;
39948;SDS011;29070;48.102;-1.652;2023-04-29T16:30:25;2.57;;;1.50;;
39948;SDS011;29070;48.102;-1.652;2023-04-29T16:35:27;4.78;;;1.40;;
39948;SDS011;29070;48.102;-1.652;2023-04-29T16:40:29;1.67;;;1.30;;
39948;SDS011;29070;48.102;-1.652;2023-04-29T16:45:30;1.95;;;1.20;;
39948;SDS011;29070;48.102;-1.652;2023-04-29T16:50:30;2.28;;;1.35;;
39948;SDS011;29070;48.102;-1.652;2023-04-29T16:55:31;3.78;;;1.40;;
39948;SDS011;29070;48.102;-1.652;2023-04-29T17:00:31;2.90;;;1.43;;
39948;SDS011;29070;48.102;-1.652;2023-04-29T17:05:32;3.20;;;1.63;;
39948;SDS011;29070;48.102;-1.652;2023-04-29T17:10:32;1.65;;;1.08;;
39948;SDS011;29070;48.102;-1.652;2023-04-29T17:15:33;1.60;;;0.97;;
39948;SDS011;29070;48.102;-1.652;2023-04-29T17:20:33;1.60;;;1.17;;
39948;SDS011;29070;48.102;-1.652;2023-04-29T17:25:35;1.08;;;0.80;;
39948;SDS011;29070;48.102;-1.652;2023-04-29T17:30:36;2.13;;;0.90;;
39948;SDS011;29070;48.102;-1.652;2023-04-29T17:35:36;1.60;;;1.30;;
39948;SDS011;29070;48.102;-1.652;2023-04-29T17:40:37;1.40;;;1.20;;
39948;SDS011;29070;48.102;-1.652;2023-04-29T17:45:40;3.57;;;2.03;;
39948;SDS011;29070;48.102;-1.652;2023-04-29T17:50:40;2.47;;;1.50;;
39948;SDS011;29070;48.102;-1.652;2023-04-29T17:55:41;2.40;;;1.60;;
39948;SDS011;29070;48.102;-1.652;2023-04-29T18:00:44;2.88;;;1.25;;
39948;SDS011;29070;48.102;-1.652;2023-04-29T18:05:44;2.17;;;1.40;;
39948;SDS011;29070;48.102;-1.652;2023-04-29T18:10:46;4.25;;;1.75;;
39948;SDS011;29070;48.102;-1.652;2023-04-29T18:15:46;2.07;;;1.53;;
39948;SDS011;29070;48.102;-1.652;2023-04-29T18:20:47;1.88;;;1.60;;
39948;SDS011;29070;48.102;-1.652;2023-04-29T18:25:48;2.30;;;1.73;;
39948;SDS011;29070;48.102;-1.652;2023-04-29T18:30:48;6.32;;;1.98;;
39948;SDS011;29070;48.102;-1.652;2023-04-29T18:35:49;4.88;;;2.25;;
39948;SDS011;29070;48.102;-1.652;2023-04-29T18:40:49;4.38;;;2.38;;
39948;SDS011;29070;48.102;-1.652;2023-04-29T18:45:50;4.53;;;2.60;;
39948;SDS011;29070;48.102;-1.652;2023-04-29T18:50:50;10.87;;;3.30;;
39948;SDS011;29070;48.102;-1.652;2023-04-29T18:55:51;6.75;;;3.72;;
39948;SDS011;29070;48.102;-1.652;2023-04-29T19:00:52;6.70;;;3.40;;
39948;SDS011;29070;48.102;-1.652;2023-04-29T19:05:52;5.22;;;3.70;;
39948;SDS011;29070;48.102;-1.652;2023-04-29T19:10:53;8.33;;;4.03;;
39948;SDS011;29070;48.102;-1.652;2023-04-29T19:15:53;9.40;;;5.00;;
39948;SDS011;29070;48.102;-1.652;2023-04-29T19:20:54;6.68;;;4.43;;
39948;SDS011;29070;48.102;-1.652;2023-04-29T19:25:55;8.57;;;5.07;;
39948;SDS011;29070;48.102;-1.652;2023-04-29T19:30:55;9.83;;;5.73;;
39948;SDS011;29070;48.102;-1.652;2023-04-29T19:35:55;8.23;;;5.25;;
39948;SDS011;29070;48.102;-1.652;2023-04-29T19:40:56;10.23;;;6.00;;
39948;SDS011;29070;48.102;-1.652;2023-04-29T19:45:56;11.50;;;6.67;;
39948;SDS011;29070;48.102;-1.652;2023-04-29T19:50:57;10.52;;;6.53;;
39948;SDS011;29070;48.102;-1.652;2023-04-29T19:55:58;12.77;;;7.10;;
39948;SDS011;29070;48.102;-1.652;2023-04-29T20:00:58;13.53;;;7.37;;
39948;SDS011;29070;48.102;-1.652;2023-04-29T20:05:59;13.30;;;8.00;;
39948;SDS011;29070;48.102;-1.652;2023-04-29T20:10:59;12.63;;;7.18;;
39948;SDS011;29070;48.102;-1.652;2023-04-29T20:16:01;15.65;;;7.82;;
39948;SDS011;29070;48.102;-1.652;2023-04-29T20:21:01;14.63;;;7.13;;
39948;SDS011;29070;48.102;-1.652;2023-04-29T20:26:02;16.70;;;8.43;;
39948;SDS011;29070;48.102;-1.652;2023-04-29T20:31:03;15.10;;;7.60;;
39948;SDS011;29070;48.102;-1.652;2023-04-29T20:36:03;12.57;;;7.33;;
39948;SDS011;29070;48.102;-1.652;2023-04-29T20:41:05;15.02;;;7.55;;
39948;SDS011;29070;48.102;-1.652;2023-04-29T20:46:06;14.73;;;8.70;;
39948;SDS011;29070;48.102;-1.652;2023-04-29T20:51:06;14.53;;;8.13;;
39948;SDS011;29070;48.102;-1.652;2023-04-29T20:56:06;14.98;;;7.97;;
39948;SDS011;29070;48.102;-1.652;2023-04-29T21:01:09;16.20;;;9.05;;
39948;SDS011;29070;48.102;-1.652;2023-04-29T21:06:09;19.53;;;9.50;;
39948;SDS011;29070;48.102;-1.652;2023-04-29T21:11:10;16.80;;;8.75;;
39948;SDS011;29070;48.102;-1.652;2023-04-29T21:16:11;18.93;;;9.37;;
39948;SDS011;29070;48.102;-1.652;2023-04-29T21:21:11;19.40;;;9.93;;
39948;SDS011;29070;48.102;-1.652;2023-04-29T21:26:11;14.90;;;8.90;;
39948;SDS011;29070;48.102;-1.652;2023-04-29T21:31:13;19.48;;;10.10;;
39948;SDS011;29070;48.102;-1.652;2023-04-29T21:36:15;18.77;;;9.90;;
39948;SDS011;29070;48.102;-1.652;2023-04-29T21:41:25;23.03;;;10.43;;
39948;SDS011;29070;48.102;-1.652;2023-04-29T21:46:29;18.92;;;9.82;;
39948;SDS011;29070;48.102;-1.652;2023-04-29T21:51:32;20.38;;;10.07;;
39948;SDS011;29070;48.102;-1.652;2023-04-29T21:56:33;21.00;;;10.63;;
39948;SDS011;29070;48.102;-1.652;2023-04-29T22:01:34;20.75;;;10.50;;
39948;SDS011;29070;48.102;-1.652;2023-04-29T22:06:44;20.42;;;10.15;;
39948;SDS011;29070;48.102;-1.652;2023-04-29T22:11:44;19.33;;;9.90;;
39948;SDS011;29070;48.102;-1.652;2023-04-29T22:16:44;22.70;;;10.10;;
39948;SDS011;29070;48.102;-1.652;2023-04-29T22:21:45;21.07;;;11.13;;
39948;SDS011;29070;48.102;-1.652;2023-04-29T22:26:45;24.85;;;10.73;;
39948;SDS011;29070;48.102;-1.652;2023-04-29T22:31:46;21.87;;;10.60;;
39948;SDS011;29070;48.102;-1.652;2023-04-29T22:36:46;23.73;;;11.17;;
39948;SDS011;29070;48.102;-1.652;2023-04-29T22:41:46;23.13;;;9.90;;
39948;SDS011;29070;48.102;-1.652;2023-04-29T22:46:47;23.20;;;11.67;;
39948;SDS011;29070;48.102;-1.652;2023-04-29T22:51:47;24.67;;;11.27;;
39948;SDS011;29070;48.102;-1.652;2023-04-29T22:56:47;25.33;;;10.53;;
39948;SDS011;29070;48.102;-1.652;2023-04-29T23:01:48;23.93;;;10.30;;
39948;SDS011;29070;48.102;-1.652;2023-04-29T23:06:48;22.43;;;10.30;;
39948;SDS011;29070;48.102;-1.652;2023-04-29T23:11:48;28.77;;;11.70;;
39948;SDS011;29070;48.102;-1.652;2023-04-29T23:16:49;23.97;;;11.47;;
39948;SDS011;29070;48.102;-1.652;2023-04-29T23:21:50;25.67;;;12.40;;
39948;SDS011;29070;48.102;-1.652;2023-04-29T23:26:50;26.87;;;11.97;;
39948;SDS011;29070;48.102;-1.652;2023-04-29T23:31:50;23.23;;;11.10;;
39948;SDS011;29070;48.102;-1.652;2023-04-29T23:36:51;25.13;;;11.23;;
39948;SDS011;29070;48.102;-1.652;2023-04-29T23:41:51;25.13;;;12.33;;
39948;SDS011;29070;48.102;-1.652;2023-04-29T23:46:51;21.87;;;10.83;;
39948;SDS011;29070;48.102;-1.652;2023-04-29T23:51:52;26.75;;;11.68;;
39948;SDS011;29070;48.102;-1.652;2023-04-29T23:56:52;23.53;;;10.47;;
